Sankt Peterburg — UFZC — position and weather

sailwx.info

Track history (hours):
 
Tides and Currents Weather Stations Pressure Air Temp Water Temp Dewpoint Dewpoint Depression Visibility Wind Speed Wind Dir Waves Ship Positions

Sankt Peterburg

Last reported at 2017-Nov-15 16:28 UTC. Time now 2017-Nov-22 15:08 UTC.
Position N 45°31' E 036°47'.

Length 141 m; draft 2.9 m.

Type: Ship. MMSI: 273443330.

Date/timePositionNaut miles runAvg speedWind from/ knotsBaromVisibWave heightAir tempDewpointWater temp
2017-Nov-15 16:28N 45°31' E 036°47'4 5.7
2017-Nov-15 15:51N 45°29' E 036°43'2 5.8
2017-Nov-15 15:30N 45°27' E 036°42'3 5.5
2017-Nov-15 15:00N 45°24' E 036°41'2 5.0
2017-Nov-15 14:30N 45°22' E 036°40'3 4.9
2017-Nov-15 13:52N 45°20' E 036°36'2 4.7
2017-Nov-15 13:30N 45°20' E 036°33'3 5.2
2017-Nov-15 13:00N 45°18' E 036°30'2 4.7
2017-Nov-15 12:30N 45°16' E 036°29'3 5.3
2017-Nov-15 12:00N 45°14' E 036°29'3 5.5
2017-Nov-15 11:30N 45°11' E 036°29'4 5.7
2017-Nov-15 10:52N 45°08' E 036°32'1 0.1
2017-Nov-14 20:21N 45°07' E 036°33'2 6.2
2017-Nov-14 19:58N 45°08' E 036°31'3 6.2
2017-Nov-14 19:30N 45°11' E 036°28'3 6.0
2017-Nov-14 19:00N 45°14' E 036°28'3 5.7
2017-Nov-14 18:30N 45°17' E 036°28'3 5.1
2017-Nov-14 18:00N 45°19' E 036°31'1 2.3
2017-Nov-14 17:30N 45°19' E 036°32'1 2.6
2017-Nov-14 17:00N 45°19' E 036°34'2 4.4
2017-Nov-14 16:30N 45°20' E 036°37'2 5.0
2017-Nov-14 16:00N 45°21' E 036°40'3 5.8
2017-Nov-14 15:30N 45°24' E 036°41'3 5.8
2017-Nov-14 15:00N 45°27' E 036°43'3 0.8
2017-Nov-14 11:44N 45°29' E 036°44'0 0.0
2017-Nov-14 11:17N 45°29' E 036°44'0 0.0
2017-Nov-14 10:59N 45°29' E 036°44'0 0.0
2017-Nov-14 10:26N 45°29' E 036°44'0 0.0
2017-Nov-14 09:50N 45°29' E 036°44'0 0.0
2017-Nov-14 09:20N 45°29' E 036°44'0 0.0
2017-Nov-14 08:59N 45°29' E 036°44'0 0.0
2017-Nov-14 08:23N 45°29' E 036°44'0 0.0
2017-Nov-14 07:53N 45°29' E 036°44'0 0.0
2017-Nov-14 07:29N 45°29' E 036°44'0 0.0
2017-Nov-14 06:56N 45°29' E 036°44'0 0.0
2017-Nov-14 06:20N 45°29' E 036°44'0 0.0
2017-Nov-14 05:56N 45°29' E 036°44'0 0.0
2017-Nov-14 05:23N 45°29' E 036°44'0 0.0
2017-Nov-14 01:45N 45°29' E 036°44'0 0.0
2017-Nov-14 00:24N 45°29' E 036°44'0 0.0
2017-Nov-13 22:33N 45°29' E 036°44'0 0.0
2017-Nov-13 22:09N 45°29' E 036°44'0 0.0
2017-Nov-13 21:57N 45°29' E 036°44'0 0.0
2017-Nov-13 01:58N 45°29' E 036°44'0 0.0
2017-Nov-13 01:22N 45°29' E 036°44'0 0.0
2017-Nov-13 00:58N 45°29' E 036°45'0 0.0
2017-Nov-13 00:28N 45°29' E 036°45'0 0.0
2017-Nov-12 23:58N 45°29' E 036°45'0 0.0
2017-Nov-12 23:25N 45°29' E 036°45'0 0.0
2017-Nov-12 22:43N 45°29' E 036°45'0 0.0
2017-Nov-12 22:25N 45°29' E 036°45'0 0.0
2017-Nov-12 21:55N 45°29' E 036°45'0 0.0
2017-Nov-12 21:25N 45°29' E 036°45'0 0.0
2017-Nov-12 20:55N 45°29' E 036°45'0 0.0
2017-Nov-12 20:28N 45°29' E 036°45'0 0.0
2017-Nov-12 19:58N 45°29' E 036°45'0 0.0
2017-Nov-12 19:28N 45°29' E 036°44'0 0.0
2017-Nov-12 18:58N 45°29' E 036°44'0 0.0
2017-Nov-12 18:28N 45°29' E 036°44'0 0.0
2017-Nov-12 17:55N 45°29' E 036°44'0 0.0
2017-Nov-12 17:28N 45°29' E 036°44'0 0.0
2017-Nov-12 16:58N 45°29' E 036°44'0 0.0
2017-Nov-12 16:22N 45°29' E 036°44'0 0.0
2017-Nov-12 15:52N 45°29' E 036°44'0 0.0
2017-Nov-12 15:28N 45°29' E 036°44'0 0.0
2017-Nov-12 14:58N 45°29' E 036°44'0 0.0
2017-Nov-12 14:25N 45°29' E 036°44'0 0.0
2017-Nov-12 13:58N 45°29' E 036°44'0 0.0
2017-Nov-12 13:25N 45°29' E 036°44'0 0.0
2017-Nov-12 12:58N 45°29' E 036°44'0 0.0
2017-Nov-12 12:28N 45°29' E 036°44'0 0.0
2017-Nov-12 11:58N 45°29' E 036°44'0 0.0
2017-Nov-12 11:22N 45°29' E 036°44'0 0.0
2017-Nov-12 10:58N 45°29' E 036°44'0 0.0
2017-Nov-12 10:25N 45°29' E 036°44'0 0.0
2017-Nov-12 09:58N 45°29' E 036°44'0 0.0
2017-Nov-12 09:22N 45°29' E 036°44'0 0.0
2017-Nov-12 08:46N 45°29' E 036°44'0 0.0
2017-Nov-12 08:28N 45°29' E 036°44'0 0.0
2017-Nov-12 07:52N 45°29' E 036°44'0 0.0
2017-Nov-12 07:25N 45°29' E 036°44'0 0.0
2017-Nov-12 06:58N 45°29' E 036°44'0 0.0
2017-Nov-12 06:22N 45°29' E 036°44'0 0.0
2017-Nov-12 05:49N 45°29' E 036°44'0 0.0
2017-Nov-12 05:28N 45°29' E 036°44'0 0.0
2017-Nov-12 04:58N 45°29' E 036°44'0 0.0
2017-Nov-12 04:22N 45°29' E 036°44'0 0.0
2017-Nov-12 03:55N 45°29' E 036°44'0 0.0
2017-Nov-12 03:19N 45°29' E 036°45'0 0.0
2017-Nov-12 02:52N 45°29' E 036°44'0 0.0
2017-Nov-12 01:34N 45°29' E 036°44'0 0.0
2017-Nov-12 01:19N 45°29' E 036°44'0 0.0
2017-Nov-12 00:58N 45°29' E 036°44'0 0.0
2017-Nov-12 00:28N 45°29' E 036°45'0 0.0
2017-Nov-11 23:58N 45°29' E 036°45'0 0.0
2017-Nov-11 23:25N 45°29' E 036°45'0 0.0
2017-Nov-11 22:55N 45°29' E 036°45'0 0.0
2017-Nov-11 22:28N 45°29' E 036°45'0 0.0
2017-Nov-11 21:52N 45°29' E 036°45'0 0.0
2017-Nov-11 21:28N 45°29' E 036°45'0 0.0
2017-Nov-11 07:46N 45°29' E 036°44'0 0.0
2017-Nov-11 07:16N 45°29' E 036°44'0 0.0
2017-Nov-11 03:31N 45°29' E 036°44'0 0.0
2017-Nov-11 03:19N 45°29' E 036°44'0 0.0
2017-Nov-11 02:58N 45°29' E 036°44'0 0.1
2017-Nov-11 02:25N 45°29' E 036°44'0 0.0
2017-Nov-11 01:55N 45°29' E 036°44'0 0.0
2017-Nov-11 00:10N 45°29' E 036°44'0 0.1
2017-Nov-10 23:58N 45°29' E 036°44'0 0.0
2017-Nov-10 23:22N 45°29' E 036°44'0 0.0
2017-Nov-10 22:55N 45°29' E 036°44'0 0.0
2017-Nov-10 22:22N 45°29' E 036°44'0 0.0
2017-Nov-10 21:55N 45°29' E 036°44'0 0.0
2017-Nov-10 21:19N 45°29' E 036°44'0 0.0
2017-Nov-10 20:40N 45°29' E 036°44'0 0.0
2017-Nov-10 20:10N 45°29' E 036°44'0 0.0
2017-Nov-10 19:58N 45°29' E 036°44'0 0.0
2017-Nov-10 19:07N 45°29' E 036°44'0 0.0
2017-Nov-10 17:49N 45°29' E 036°44'0 0.0
2017-Nov-10 17:28N 45°29' E 036°44'0 0.0
2017-Nov-10 16:58N 45°29' E 036°44'0 0.0
2017-Nov-10 16:28N 45°29' E 036°44'0 0.0
2017-Nov-10 15:58N 45°29' E 036°44'0 0.0
2017-Nov-10 15:28N 45°29' E 036°44'0 0.0
2017-Nov-10 14:55N 45°29' E 036°44'0 0.0
2017-Nov-10 14:28N 45°29' E 036°44'0 0.0
2017-Nov-10 13:55N 45°29' E 036°44'0 0.0
2017-Nov-10 13:22N 45°29' E 036°44'0 0.0
2017-Nov-10 12:49N 45°29' E 036°44'0 0.0
2017-Nov-10 12:25N 45°29' E 036°44'0 0.0
2017-Nov-10 11:58N 45°29' E 036°44'0 0.0
2017-Nov-10 11:28N 45°29' E 036°44'0 0.0
2017-Nov-10 10:58N 45°29' E 036°44'0 0.0
2017-Nov-10 10:19N 45°29' E 036°44'0 0.0
2017-Nov-10 09:58N 45°29' E 036°44'0 0.0
2017-Nov-10 09:28N 45°29' E 036°44'0 0.0
2017-Nov-10 08:58N 45°29' E 036°44'0 0.0
2017-Nov-10 08:28N 45°29' E 036°44'0 0.0
2017-Nov-10 07:58N 45°29' E 036°44'0 0.0
2017-Nov-10 07:25N 45°29' E 036°44'0 0.0
2017-Nov-10 06:40N 45°29' E 036°44'0 0.1
2017-Nov-10 06:25N 45°29' E 036°44'0 0.0
2017-Nov-10 05:58N 45°29' E 036°44'0 0.0
2017-Nov-10 05:28N 45°29' E 036°44'0 0.0
2017-Nov-10 04:49N 45°29' E 036°44'0 0.0
2017-Nov-10 04:31N 45°29' E 036°44'0 0.0
2017-Nov-10 03:16N 45°29' E 036°44'0 0.0
2017-Nov-10 02:16N 45°29' E 036°44'0 0.0
2017-Nov-10 01:46N 45°29' E 036°44'0 0.0
2017-Nov-10 01:28N 45°29' E 036°44'0 0.0
2017-Nov-10 00:49N 45°29' E 036°44'0 0.0
2017-Nov-10 00:22N 45°29' E 036°44'0 0.0
2017-Nov-09 23:54N 45°29' E 036°44'0 0.0
2017-Nov-09 23:03N 45°29' E 036°44'0 0.1
2017-Nov-09 23:00N 45°29' E 036°44'0 0.0
2017-Nov-09 22:21N 45°29' E 036°44'0 0.0
2017-Nov-09 21:54N 45°29' E 036°44'0 0.0
2017-Nov-09 21:24N 45°29' E 036°44'0 0.0
2017-Nov-09 20:57N 45°29' E 036°44'0 0.0
2017-Nov-09 20:24N 45°29' E 036°44'0 0.0
2017-Nov-09 20:00N 45°29' E 036°44'0 0.0
2017-Nov-09 19:27N 45°29' E 036°44'0 0.0
2017-Nov-09 18:54N 45°29' E 036°44'0 0.0
2017-Nov-09 18:24N 45°29' E 036°44'0 0.0
2017-Nov-09 18:00N 45°29' E 036°44'0 0.0
2017-Nov-09 17:18N 45°29' E 036°44'0 0.0
2017-Nov-09 17:00N 45°29' E 036°44'0 0.0
2017-Nov-09 16:27N 45°29' E 036°44'0 0.0
2017-Nov-09 14:57N 45°29' E 036°44'0 0.0
2017-Nov-09 13:24N 45°29' E 036°44'0 0.0
2017-Nov-09 12:00N 45°29' E 036°44'0 0.0
2017-Nov-09 08:48N 45°29' E 036°44'0 0.0
2017-Nov-09 08:30N 45°29' E 036°44'0 0.0
2017-Nov-09 06:48N 45°29' E 036°44'0 0.0
2017-Nov-09 06:24N 45°29' E 036°44'0 0.0
2017-Nov-09 01:45N 45°29' E 036°44'0 0.0
2017-Nov-09 01:27N 45°29' E 036°44'0 0.0
2017-Nov-09 00:57N 45°29' E 036°44'0 0.0
2017-Nov-09 00:24N 45°29' E 036°44'0 0.0
2017-Nov-08 23:54N 45°29' E 036°44'0 0.0
2017-Nov-08 23:30N 45°29' E 036°44'0 0.0
2017-Nov-08 22:54N 45°29' E 036°44'0 0.0
2017-Nov-08 22:30N 45°29' E 036°44'0 0.0
2017-Nov-08 21:57N 45°29' E 036°44'0 0.0
2017-Nov-08 21:24N 45°29' E 036°44'0 0.0
2017-Nov-08 20:09N 45°29' E 036°44'0 0.0
2017-Nov-08 19:45N 45°29' E 036°44'0 0.0
2017-Nov-08 19:15N 45°29' E 036°44'0 0.0
2017-Nov-08 19:00N 45°29' E 036°44'0 0.0
2017-Nov-08 18:30N 45°29' E 036°44'0 0.0
2017-Nov-08 18:00N 45°29' E 036°44'0 0.0
2017-Nov-08 17:30N 45°29' E 036°44'0 0.0
2017-Nov-08 16:57N 45°29' E 036°44'0 0.0
2017-Nov-08 16:30N 45°29' E 036°44'0 0.0
2017-Nov-08 16:00N 45°29' E 036°44'0 0.0
2017-Nov-08 15:27N 45°29' E 036°44'0 0.0
2017-Nov-08 14:57N 45°29' E 036°44'0 0.0
2017-Nov-08 14:30N 45°29' E 036°44'0 0.0
2017-Nov-08 13:54N 45°29' E 036°44'0 0.0
2017-Nov-08 13:27N 45°29' E 036°44'0 0.0
2017-Nov-08 13:00N 45°29' E 036°44'0 0.0
2017-Nov-08 12:30N 45°29' E 036°44'0 0.0
2017-Nov-08 12:00N 45°29' E 036°44'0 0.0
2017-Nov-08 11:30N 45°29' E 036°44'0 0.0
2017-Nov-08 10:51N 45°29' E 036°44'0 0.0
2017-Nov-08 10:30N 45°29' E 036°44'0 0.0
2017-Nov-08 09:57N 45°29' E 036°44'0 0.0
2017-Nov-08 09:30N 45°29' E 036°44'0 0.0
2017-Nov-08 09:00N 45°29' E 036°44'0 0.0
2017-Nov-08 08:15N 45°29' E 036°44'0 0.0
2017-Nov-08 08:00N 45°29' E 036°44'0 0.0
2017-Nov-08 07:30N 45°29' E 036°44'0 0.0
2017-Nov-08 07:00N 45°29' E 036°44'0 0.0
2017-Nov-08 06:30N 45°29' E 036°44'0 0.0
2017-Nov-08 05:57N 45°29' E 036°44'0 0.0
2017-Nov-08 05:24N 45°29' E 036°44'0 0.0
2017-Nov-08 04:27N 45°29' E 036°44'0 0.0
2017-Nov-08 03:54N 45°29' E 036°44'0 0.0
2017-Nov-08 01:54N 45°29' E 036°44'0 0.0
2017-Nov-07 23:18N 45°29' E 036°44'0 0.0
2017-Nov-07 21:57N 45°29' E 036°44'0 0.0
2017-Nov-07 21:30N 45°29' E 036°44'0 0.0
2017-Nov-07 21:00N 45°29' E 036°44'0 0.0
2017-Nov-07 20:30N 45°29' E 036°44'0 0.0
2017-Nov-07 19:39N 45°29' E 036°44'0 0.0
2017-Nov-07 19:30N 45°29' E 036°44'0 0.0
2017-Nov-07 19:00N 45°29' E 036°44'0 0.0
2017-Nov-07 13:42N 45°29' E 036°44'0 0.0
2017-Nov-07 09:21N 45°29' E 036°44'1 2.3
2017-Nov-07 09:00N 45°30' E 036°45'1 0.3
2017-Nov-07 06:20N 45°30' E 036°46'0 1.1
2017-Nov-07 06:01N 45°30' E 036°46'2 4.6
2017-Nov-07 05:31N 45°30' E 036°49'  
Track history (hours):
 
Tides and Currents Weather Stations Pressure Air Temp Water Temp Dewpoint Dewpoint Depression Visibility Wind Speed Wind Dir Waves Ship Positions

Sankt Peterburg

Last reported at 2017-Nov-15 16:28 UTC. Time now 2017-Nov-22 15:08 UTC.
Position N 45°31' E 036°47'.

Length 141 m; draft 2.9 m.

Type: Ship. MMSI: 273443330.

Date/timePositionNaut miles runAvg speedWind from/ knotsBaromVisibWave heightAir tempDewpointWater temp
2017-Nov-15 16:28N 45°31' E 036°47'4 5.7
2017-Nov-15 15:51N 45°29' E 036°43'2 5.8
2017-Nov-15 15:30N 45°27' E 036°42'3 5.5
2017-Nov-15 15:00N 45°24' E 036°41'2 5.0
2017-Nov-15 14:30N 45°22' E 036°40'3 4.9
2017-Nov-15 13:52N 45°20' E 036°36'2 4.7
2017-Nov-15 13:30N 45°20' E 036°33'3 5.2
2017-Nov-15 13:00N 45°18' E 036°30'2 4.7
2017-Nov-15 12:30N 45°16' E 036°29'3 5.3
2017-Nov-15 12:00N 45°14' E 036°29'3 5.5
2017-Nov-15 11:30N 45°11' E 036°29'4 5.7
2017-Nov-15 10:52N 45°08' E 036°32'1 0.1
2017-Nov-14 20:21N 45°07' E 036°33'2 6.2
2017-Nov-14 19:58N 45°08' E 036°31'3 6.2
2017-Nov-14 19:30N 45°11' E 036°28'3 6.0
2017-Nov-14 19:00N 45°14' E 036°28'3 5.7
2017-Nov-14 18:30N 45°17' E 036°28'3 5.1
2017-Nov-14 18:00N 45°19' E 036°31'1 2.3
2017-Nov-14 17:30N 45°19' E 036°32'1 2.6
2017-Nov-14 17:00N 45°19' E 036°34'2 4.4
2017-Nov-14 16:30N 45°20' E 036°37'2 5.0
2017-Nov-14 16:00N 45°21' E 036°40'3 5.8
2017-Nov-14 15:30N 45°24' E 036°41'3 5.8
2017-Nov-14 15:00N 45°27' E 036°43'3 0.8
2017-Nov-14 11:44N 45°29' E 036°44'0 0.0
2017-Nov-14 11:17N 45°29' E 036°44'0 0.0
2017-Nov-14 10:59N 45°29' E 036°44'0 0.0
2017-Nov-14 10:26N 45°29' E 036°44'0 0.0
2017-Nov-14 09:50N 45°29' E 036°44'0 0.0
2017-Nov-14 09:20N 45°29' E 036°44'0 0.0
2017-Nov-14 08:59N 45°29' E 036°44'0 0.0
2017-Nov-14 08:23N 45°29' E 036°44'0 0.0
2017-Nov-14 07:53N 45°29' E 036°44'0 0.0
2017-Nov-14 07:29N 45°29' E 036°44'0 0.0
2017-Nov-14 06:56N 45°29' E 036°44'0 0.0
2017-Nov-14 06:20N 45°29' E 036°44'0 0.0
2017-Nov-14 05:56N 45°29' E 036°44'0 0.0
2017-Nov-14 05:23N 45°29' E 036°44'0 0.0
2017-Nov-14 01:45N 45°29' E 036°44'0 0.0
2017-Nov-14 00:24N 45°29' E 036°44'0 0.0
2017-Nov-13 22:33N 45°29' E 036°44'0 0.0
2017-Nov-13 22:09N 45°29' E 036°44'0 0.0
2017-Nov-13 21:57N 45°29' E 036°44'0 0.0
2017-Nov-13 01:58N 45°29' E 036°44'0 0.0
2017-Nov-13 01:22N 45°29' E 036°44'0 0.0
2017-Nov-13 00:58N 45°29' E 036°45'0 0.0
2017-Nov-13 00:28N 45°29' E 036°45'0 0.0
2017-Nov-12 23:58N 45°29' E 036°45'0 0.0
2017-Nov-12 23:25N 45°29' E 036°45'0 0.0
2017-Nov-12 22:43N 45°29' E 036°45'0 0.0
2017-Nov-12 22:25N 45°29' E 036°45'0 0.0
2017-Nov-12 21:55N 45°29' E 036°45'0 0.0
2017-Nov-12 21:25N 45°29' E 036°45'0 0.0
2017-Nov-12 20:55N 45°29' E 036°45'0 0.0
2017-Nov-12 20:28N 45°29' E 036°45'0 0.0
2017-Nov-12 19:58N 45°29' E 036°45'0 0.0
2017-Nov-12 19:28N 45°29' E 036°44'0 0.0
2017-Nov-12 18:58N 45°29' E 036°44'0 0.0
2017-Nov-12 18:28N 45°29' E 036°44'0 0.0
2017-Nov-12 17:55N 45°29' E 036°44'0 0.0
2017-Nov-12 17:28N 45°29' E 036°44'0 0.0
2017-Nov-12 16:58N 45°29' E 036°44'0 0.0
2017-Nov-12 16:22N 45°29' E 036°44'0 0.0
2017-Nov-12 15:52N 45°29' E 036°44'0 0.0
2017-Nov-12 15:28N 45°29' E 036°44'0 0.0
2017-Nov-12 14:58N 45°29' E 036°44'0 0.0
2017-Nov-12 14:25N 45°29' E 036°44'0 0.0
2017-Nov-12 13:58N 45°29' E 036°44'0 0.0
2017-Nov-12 13:25N 45°29' E 036°44'0 0.0
2017-Nov-12 12:58N 45°29' E 036°44'0 0.0
2017-Nov-12 12:28N 45°29' E 036°44'0 0.0
2017-Nov-12 11:58N 45°29' E 036°44'0 0.0
2017-Nov-12 11:22N 45°29' E 036°44'0 0.0
2017-Nov-12 10:58N 45°29' E 036°44'0 0.0
2017-Nov-12 10:25N 45°29' E 036°44'0 0.0
2017-Nov-12 09:58N 45°29' E 036°44'0 0.0
2017-Nov-12 09:22N 45°29' E 036°44'0 0.0
2017-Nov-12 08:46N 45°29' E 036°44'0 0.0
2017-Nov-12 08:28N 45°29' E 036°44'0 0.0
2017-Nov-12 07:52N 45°29' E 036°44'0 0.0
2017-Nov-12 07:25N 45°29' E 036°44'0 0.0
2017-Nov-12 06:58N 45°29' E 036°44'0 0.0
2017-Nov-12 06:22N 45°29' E 036°44'0 0.0
2017-Nov-12 05:49N 45°29' E 036°44'0 0.0
2017-Nov-12 05:28N 45°29' E 036°44'0 0.0
2017-Nov-12 04:58N 45°29' E 036°44'0 0.0
2017-Nov-12 04:22N 45°29' E 036°44'0 0.0
2017-Nov-12 03:55N 45°29' E 036°44'0 0.0
2017-Nov-12 03:19N 45°29' E 036°45'0 0.0
2017-Nov-12 02:52N 45°29' E 036°44'0 0.0
2017-Nov-12 01:34N 45°29' E 036°44'0 0.0
2017-Nov-12 01:19N 45°29' E 036°44'0 0.0
2017-Nov-12 00:58N 45°29' E 036°44'0 0.0
2017-Nov-12 00:28N 45°29' E 036°45'0 0.0
2017-Nov-11 23:58N 45°29' E 036°45'0 0.0
2017-Nov-11 23:25N 45°29' E 036°45'0 0.0
2017-Nov-11 22:55N 45°29' E 036°45'0 0.0
2017-Nov-11 22:28N 45°29' E 036°45'0 0.0
2017-Nov-11 21:52N 45°29' E 036°45'0 0.0
2017-Nov-11 21:28N 45°29' E 036°45'0 0.0
2017-Nov-11 07:46N 45°29' E 036°44'0 0.0
2017-Nov-11 07:16N 45°29' E 036°44'0 0.0
2017-Nov-11 03:31N 45°29' E 036°44'0 0.0
2017-Nov-11 03:19N 45°29' E 036°44'0 0.0
2017-Nov-11 02:58N 45°29' E 036°44'0 0.1
2017-Nov-11 02:25N 45°29' E 036°44'0 0.0
2017-Nov-11 01:55N 45°29' E 036°44'0 0.0
2017-Nov-11 00:10N 45°29' E 036°44'0 0.1
2017-Nov-10 23:58N 45°29' E 036°44'0 0.0
2017-Nov-10 23:22N 45°29' E 036°44'0 0.0
2017-Nov-10 22:55N 45°29' E 036°44'0 0.0
2017-Nov-10 22:22N 45°29' E 036°44'0 0.0
2017-Nov-10 21:55N 45°29' E 036°44'0 0.0
2017-Nov-10 21:19N 45°29' E 036°44'0 0.0
2017-Nov-10 20:40N 45°29' E 036°44'0 0.0
2017-Nov-10 20:10N 45°29' E 036°44'0 0.0
2017-Nov-10 19:58N 45°29' E 036°44'0 0.0
2017-Nov-10 19:07N 45°29' E 036°44'0 0.0
2017-Nov-10 17:49N 45°29' E 036°44'0 0.0
2017-Nov-10 17:28N 45°29' E 036°44'0 0.0
2017-Nov-10 16:58N 45°29' E 036°44'0 0.0
2017-Nov-10 16:28N 45°29' E 036°44'0 0.0
2017-Nov-10 15:58N 45°29' E 036°44'0 0.0
2017-Nov-10 15:28N 45°29' E 036°44'0 0.0
2017-Nov-10 14:55N 45°29' E 036°44'0 0.0
2017-Nov-10 14:28N 45°29' E 036°44'0 0.0
2017-Nov-10 13:55N 45°29' E 036°44'0 0.0
2017-Nov-10 13:22N 45°29' E 036°44'0 0.0
2017-Nov-10 12:49N 45°29' E 036°44'0 0.0
2017-Nov-10 12:25N 45°29' E 036°44'0 0.0
2017-Nov-10 11:58N 45°29' E 036°44'0 0.0
2017-Nov-10 11:28N 45°29' E 036°44'0 0.0
2017-Nov-10 10:58N 45°29' E 036°44'0 0.0
2017-Nov-10 10:19N 45°29' E 036°44'0 0.0
2017-Nov-10 09:58N 45°29' E 036°44'0 0.0
2017-Nov-10 09:28N 45°29' E 036°44'0 0.0
2017-Nov-10 08:58N 45°29' E 036°44'0 0.0
2017-Nov-10 08:28N 45°29' E 036°44'0 0.0
2017-Nov-10 07:58N 45°29' E 036°44'0 0.0
2017-Nov-10 07:25N 45°29' E 036°44'0 0.0
2017-Nov-10 06:40N 45°29' E 036°44'0 0.1
2017-Nov-10 06:25N 45°29' E 036°44'0 0.0
2017-Nov-10 05:58N 45°29' E 036°44'0 0.0
2017-Nov-10 05:28N 45°29' E 036°44'0 0.0
2017-Nov-10 04:49N 45°29' E 036°44'0 0.0
2017-Nov-10 04:31N 45°29' E 036°44'0 0.0
2017-Nov-10 03:16N 45°29' E 036°44'0 0.0
2017-Nov-10 02:16N 45°29' E 036°44'0 0.0
2017-Nov-10 01:46N 45°29' E 036°44'0 0.0
2017-Nov-10 01:28N 45°29' E 036°44'0 0.0
2017-Nov-10 00:49N 45°29' E 036°44'0 0.0
2017-Nov-10 00:22N 45°29' E 036°44'0 0.0
2017-Nov-09 23:54N 45°29' E 036°44'0 0.0
2017-Nov-09 23:03N 45°29' E 036°44'0 0.1
2017-Nov-09 23:00N 45°29' E 036°44'0 0.0
2017-Nov-09 22:21N 45°29' E 036°44'0 0.0
2017-Nov-09 21:54N 45°29' E 036°44'0 0.0
2017-Nov-09 21:24N 45°29' E 036°44'0 0.0
2017-Nov-09 20:57N 45°29' E 036°44'0 0.0
2017-Nov-09 20:24N 45°29' E 036°44'0 0.0
2017-Nov-09 20:00N 45°29' E 036°44'0 0.0
2017-Nov-09 19:27N 45°29' E 036°44'0 0.0
2017-Nov-09 18:54N 45°29' E 036°44'0 0.0
2017-Nov-09 18:24N 45°29' E 036°44'0 0.0
2017-Nov-09 18:00N 45°29' E 036°44'0 0.0
2017-Nov-09 17:18N 45°29' E 036°44'0 0.0
2017-Nov-09 17:00N 45°29' E 036°44'0 0.0
2017-Nov-09 16:27N 45°29' E 036°44'0 0.0
2017-Nov-09 14:57N 45°29' E 036°44'0 0.0
2017-Nov-09 13:24N 45°29' E 036°44'0 0.0
2017-Nov-09 12:00N 45°29' E 036°44'0 0.0
2017-Nov-09 08:48N 45°29' E 036°44'0 0.0
2017-Nov-09 08:30N 45°29' E 036°44'0 0.0
2017-Nov-09 06:48N 45°29' E 036°44'0 0.0
2017-Nov-09 06:24N 45°29' E 036°44'0 0.0
2017-Nov-09 01:45N 45°29' E 036°44'0 0.0
2017-Nov-09 01:27N 45°29' E 036°44'0 0.0
2017-Nov-09 00:57N 45°29' E 036°44'0 0.0
2017-Nov-09 00:24N 45°29' E 036°44'0 0.0
2017-Nov-08 23:54N 45°29' E 036°44'0 0.0
2017-Nov-08 23:30N 45°29' E 036°44'0 0.0
2017-Nov-08 22:54N 45°29' E 036°44'0 0.0
2017-Nov-08 22:30N 45°29' E 036°44'0 0.0
2017-Nov-08 21:57N 45°29' E 036°44'0 0.0
2017-Nov-08 21:24N 45°29' E 036°44'0 0.0
2017-Nov-08 20:09N 45°29' E 036°44'0 0.0
2017-Nov-08 19:45N 45°29' E 036°44'0 0.0
2017-Nov-08 19:15N 45°29' E 036°44'0 0.0
2017-Nov-08 19:00N 45°29' E 036°44'0 0.0
2017-Nov-08 18:30N 45°29' E 036°44'0 0.0
2017-Nov-08 18:00N 45°29' E 036°44'0 0.0
2017-Nov-08 17:30N 45°29' E 036°44'0 0.0
2017-Nov-08 16:57N 45°29' E 036°44'0 0.0
2017-Nov-08 16:30N 45°29' E 036°44'0 0.0
2017-Nov-08 16:00N 45°29' E 036°44'0 0.0
2017-Nov-08 15:27N 45°29' E 036°44'0 0.0
2017-Nov-08 14:57N 45°29' E 036°44'0 0.0
2017-Nov-08 14:30N 45°29' E 036°44'0 0.0
2017-Nov-08 13:54N 45°29' E 036°44'0 0.0
2017-Nov-08 13:27N 45°29' E 036°44'0 0.0
2017-Nov-08 13:00N 45°29' E 036°44'0 0.0
2017-Nov-08 12:30N 45°29' E 036°44'0 0.0
2017-Nov-08 12:00N 45°29' E 036°44'0 0.0
2017-Nov-08 11:30N 45°29' E 036°44'0 0.0
2017-Nov-08 10:51N 45°29' E 036°44'0 0.0
2017-Nov-08 10:30N 45°29' E 036°44'0 0.0
2017-Nov-08 09:57N 45°29' E 036°44'0 0.0
2017-Nov-08 09:30N 45°29' E 036°44'0 0.0
2017-Nov-08 09:00N 45°29' E 036°44'0 0.0
2017-Nov-08 08:15N 45°29' E 036°44'0 0.0
2017-Nov-08 08:00N 45°29' E 036°44'0 0.0
2017-Nov-08 07:30N 45°29' E 036°44'0 0.0
2017-Nov-08 07:00N 45°29' E 036°44'0 0.0
2017-Nov-08 06:30N 45°29' E 036°44'0 0.0
2017-Nov-08 05:57N 45°29' E 036°44'0 0.0
2017-Nov-08 05:24N 45°29' E 036°44'0 0.0
2017-Nov-08 04:27N 45°29' E 036°44'0 0.0
2017-Nov-08 03:54N 45°29' E 036°44'0 0.0
2017-Nov-08 01:54N 45°29' E 036°44'0 0.0
2017-Nov-07 23:18N 45°29' E 036°44'0 0.0
2017-Nov-07 21:57N 45°29' E 036°44'0 0.0
2017-Nov-07 21:30N 45°29' E 036°44'0 0.0
2017-Nov-07 21:00N 45°29' E 036°44'0 0.0
2017-Nov-07 20:30N 45°29' E 036°44'0 0.0
2017-Nov-07 19:39N 45°29' E 036°44'0 0.0
2017-Nov-07 19:30N 45°29' E 036°44'0 0.0
2017-Nov-07 19:00N 45°29' E 036°44'0 0.0
2017-Nov-07 13:42N 45°29' E 036°44'0 0.0
2017-Nov-07 09:21N 45°29' E 036°44'1 2.3
2017-Nov-07 09:00N 45°30' E 036°45'1 0.3
2017-Nov-07 06:20N 45°30' E 036°46'0 1.1
2017-Nov-07 06:01N 45°30' E 036°46'2 4.6
2017-Nov-07 05:31N 45°30' E 036°49'  

Dump ship's entire track history